»·PEaware :: N127CB L71-KSNA

N127CB :: L71-KSNA

FLIGHT INFORMATION

Flight Status: Arrived
Operator: Privately registered:
United States
More flights under this callsign
Pilot: Chris B. (15698)
Aircraft: ECLIPSE 500
(EA50)
More flights by this aircraft type
Origin: L71 California City Mun
United States
Destination: KSNA John Wayne-Orange Co
United States
More flights between these airports :: More routes between these airports
Route: +PMD V201 BERRI V459 SLI
File this flight plan on PilotEdge
Remarks:
Altitude:
(Current/Filed)
10,000ft
Speed:
(Current/Filed)
250kts
Departed: 14-Jul-17 07:00 PM
Arrived: 14-Jul-17 07:43 PM
Distance/Time
Traveled:
89nm/0:42
Distance/Time
To Go:
Arrived

Flight Plot

Page will automatically refresh every two minutes.

Flight plan parsing failed; only flown route is shown


Map Options




Map Legend


Flown Route
Filed Route
Departure Airport
Arrival Airport
Navaid (VOR, NDB)
Fix

Horizontal Profiles

Position Reports

Time Latitude Longitude Heading Altitude Ground
Speed
14-Jul-17 18:49 35.150336 -118.015715 90 2438ft 0kts
14-Jul-17 18:50 35.150336 -118.015715 90 2438ft 0kts
14-Jul-17 18:51 35.150336 -118.015715 90 2438ft 0kts
14-Jul-17 18:52 35.150336 -118.015715 90 2438ft 0kts
14-Jul-17 18:53 35.150336 -118.015715 90 2438ft 0kts
14-Jul-17 18:54 35.150336 -118.015715 90 2438ft 0kts
14-Jul-17 18:55 35.150336 -118.015715 90 2438ft 0kts
14-Jul-17 18:56 35.150336 -118.015715 90 2438ft 0kts
14-Jul-17 18:57 35.150336 -118.015715 90 2438ft 0kts
14-Jul-17 18:58 35.150336 -118.015715 90 2438ft 0kts
14-Jul-17 18:59 35.152609 -118.006951 53 2438ft 16kts
14-Jul-17 19:00 35.152913 -118.006828 344 2438ft 0kts
14-Jul-17 19:01 35.152913 -118.006828 344 2438ft 0kts
14-Jul-17 19:02 35.152933 -118.006835 343 2438ft 3kts
14-Jul-17 19:03 35.150655 -118.018022 253 2477ft 103kts
14-Jul-17 19:04 35.143053 -118.038949 251 2618ft 113kts
14-Jul-17 19:06 35.129835 -118.076509 251 4075ft 112kts
14-Jul-17 19:07 35.093676 -118.091885 182 6157ft 132kts
14-Jul-17 19:08 35.057512 -118.088477 181 7738ft 133kts
14-Jul-17 19:09 35.021176 -118.085614 181 8075ft 133kts
14-Jul-17 19:10 34.980280 -118.082977 180 8052ft 198kts
14-Jul-17 19:11 34.924600 -118.079633 179 9243ft 204kts
14-Jul-17 19:12 34.881278 -118.077220 178 9992ft 263kts
14-Jul-17 19:13 34.824729 -118.074108 178 9999ft 292kts
14-Jul-17 19:14 34.748224 -118.069999 178 9998ft 292kts
14-Jul-17 19:15 34.674897 -118.066120 178 9997ft 292kts
14-Jul-17 19:16 34.603553 -118.080949 202 9999ft 291kts
14-Jul-17 19:17 34.534123 -118.116242 203 9997ft 291kts
14-Jul-17 19:18 34.463121 -118.153386 203 9996ft 291kts
14-Jul-17 19:19 34.390856 -118.191480 203 9994ft 290kts
14-Jul-17 19:20 34.323152 -118.227192 203 10013ft 290kts
14-Jul-17 19:21 34.268980 -118.255745 203 9995ft 289kts
14-Jul-17 19:22 34.214267 -118.283847 195 9969ft 289kts
14-Jul-17 19:23 34.159978 -118.267180 158 9980ft 291kts
14-Jul-17 19:24 34.111772 -118.241862 156 9979ft 291kts
14-Jul-17 19:25 34.067470 -118.217349 156 9977ft 291kts
14-Jul-17 19:26 34.025211 -118.193450 155 9978ft 290kts
14-Jul-17 19:27 33.978330 -118.171455 180 9964ft 288kts
14-Jul-17 19:28 33.927349 -118.182778 191 9982ft 287kts
14-Jul-17 19:29 33.885110 -118.192924 191 9501ft 285kts
14-Jul-17 19:30 33.837198 -118.204176 191 8151ft 225kts
14-Jul-17 19:31 33.791920 -118.214261 191 7004ft 217kts
14-Jul-17 19:32 33.740375 -118.225353 191 6983ft 218kts
14-Jul-17 19:33 33.684817 -118.237140 191 6984ft 218kts
14-Jul-17 19:34 33.658201 -118.191555 71 5237ft 227kts
14-Jul-17 19:35 33.675264 -118.130922 71 4977ft 225kts
14-Jul-17 19:36 33.690258 -118.078402 71 4973ft 223kts
14-Jul-17 19:37 33.697668 -118.035033 95 4885ft 204kts
14-Jul-17 19:38 33.693736 -117.995686 98 4107ft 191kts
14-Jul-17 19:39 33.688717 -117.957440 99 2992ft 176kts
14-Jul-17 19:40 33.683863 -117.924769 100 1893ft 157kts
14-Jul-17 19:41 33.684622 -117.896748 48 1475ft 135kts
14-Jul-17 19:42 33.699181 -117.883180 31 1489ft 102kts
14-Jul-17 19:43 33.712581 -117.870918 63 1110ft 105kts
14-Jul-17 19:44 33.704100 -117.854537 181 593ft 100kts
14-Jul-17 19:45 33.687086 -117.861582 209 247ft 89kts
14-Jul-17 19:46 33.677786 -117.867904 313 59ft 4kts
14-Jul-17 19:47 33.678100 -117.868373 296 59ft 0kts
14-Jul-17 19:48 33.677767 -117.869033 209 59ft 19kts
14-Jul-17 19:49 33.674005 -117.871597 207 59ft 26kts
14-Jul-17 19:50 33.672178 -117.873499 211 59ft 0kts
14-Jul-17 19:51 33.672178 -117.873499 211 59ft 0kts
14-Jul-17 19:52 33.672178 -117.873499 211 59ft 0kts
14-Jul-17 19:53 33.672178 -117.873499 211 59ft 0kts
14-Jul-17 19:54 33.672178 -117.873499 211 59ft 0kts
14-Jul-17 19:55 33.672178 -117.873499 211 59ft 0kts
14-Jul-17 19:56 33.672178 -117.873499 211 59ft 0kts
14-Jul-17 19:57 33.672178 -117.873499 211 59ft 0kts
14-Jul-17 19:58 33.672178 -117.873499 211 59ft 0kts
14-Jul-17 19:59 33.672178 -117.873499 211 59ft 0kts
14-Jul-17 20:00 33.672178 -117.873499 211 59ft 0kts

Navigation Log

Ident Type
Flight plan parsing failed, navigation log unavailable